createdAt,value
2022-08-01T00:01:31.251Z,4.40
2022-08-01T00:03:59.375Z,4.40
2022-08-01T00:06:27.902Z,4.40
2022-08-01T00:08:56.131Z,4.30
2022-08-01T00:11:24.185Z,4.40
2022-08-01T00:13:52.265Z,4.50
2022-08-01T00:16:23.847Z,4.20
2022-08-01T00:18:52.283Z,4.40
2022-08-01T00:21:20.338Z,4.40
2022-08-01T00:23:48.596Z,4.30
2022-08-01T00:26:16.583Z,4.40
2022-08-01T00:28:44.477Z,4.30
2022-08-01T00:31:12.469Z,4.90
2022-08-01T00:33:40.496Z,4.20
2022-08-01T00:36:08.511Z,4.90
2022-08-01T00:38:36.642Z,4.50
2022-08-01T00:41:04.736Z,5.30
2022-08-01T00:43:32.734Z,5.60
2022-08-01T00:46:00.704Z,5.20
2022-08-01T00:48:28.790Z,4.70
2022-08-01T00:50:56.862Z,5.10
2022-08-01T00:53:26.383Z,4.40
2022-08-01T00:55:54.784Z,5.30
2022-08-01T00:58:24.217Z,5.40
2022-08-01T01:00:54.610Z,5.60
2022-08-01T01:03:55.962Z,5.30
2022-08-01T01:06:33.872Z,4.90
2022-08-01T01:09:16.832Z,4.50
2022-08-01T01:12:19.300Z,4.90
2022-08-01T01:15:02.269Z,4.90
2022-08-01T01:17:54.168Z,4.50
2022-08-01T01:20:41.349Z,4.90
2022-08-01T01:23:15.767Z,5.40
2022-08-01T01:26:03.071Z,5.70
2022-08-01T01:28:53.404Z,4.90
2022-08-01T01:31:25.203Z,4.60
2022-08-01T01:33:55.644Z,4.30
2022-08-01T01:36:27.749Z,4.20
2022-08-01T01:38:57.354Z,4.30
2022-08-01T01:41:27.565Z,5.10
2022-08-01T01:43:56.751Z,4.50
2022-08-01T01:46:28.699Z,4.30
2022-08-01T01:48:58.707Z,4.80
2022-08-01T01:51:29.137Z,4.70
2022-08-01T01:53:59.115Z,5.20
2022-08-01T01:56:29.945Z,4.80
2022-08-01T01:59:01.639Z,5.50
2022-08-01T02:01:58.390Z,5.50
2022-08-01T02:04:23.475Z,5.40
2022-08-01T02:06:55.378Z,5.60
2022-08-01T02:09:26.185Z,5.60
2022-08-01T02:12:07.439Z,5.60
2022-08-01T02:14:38.482Z,5.30
2022-08-01T02:17:07.167Z,4.90
2022-08-01T02:19:37.920Z,5.00
2022-08-01T02:22:18.144Z,5.60
2022-08-01T02:25:00.671Z,5.20
2022-08-01T02:27:44.120Z,5.10
2022-08-01T02:30:22.513Z,5.50
2022-08-01T02:32:58.964Z,5.40
2022-08-01T02:35:30.765Z,4.70
2022-08-01T02:38:01.851Z,4.90
2022-08-01T02:40:34.259Z,5.50
2022-08-01T02:43:06.982Z,5.30
2022-08-01T02:45:38.588Z,5.60
2022-08-01T02:48:13.019Z,5.00
2022-08-01T02:50:45.336Z,4.70
2022-08-01T02:53:15.934Z,5.20
2022-08-01T02:55:46.332Z,4.70
2022-08-01T02:58:17.719Z,4.60
2022-08-01T03:00:48.565Z,4.30
2022-08-01T03:03:18.319Z,5.00
2022-08-01T03:05:48.316Z,4.50
2022-08-01T03:08:18.219Z,5.20
2022-08-01T03:10:48.171Z,5.20
2022-08-01T03:13:18.327Z,4.80
2022-08-01T03:15:48.197Z,4.60
2022-08-01T03:18:18.505Z,4.70
2022-08-01T03:20:47.326Z,4.60
2022-08-01T03:23:16.576Z,4.60
2022-08-01T03:25:46.771Z,4.60
2022-08-01T03:28:17.318Z,4.70
2022-08-01T03:30:46.492Z,4.40
2022-08-01T03:33:14.820Z,4.10
2022-08-01T03:35:54.969Z,4.60
2022-08-01T03:38:27.777Z,4.40
2022-08-01T03:41:03.805Z,4.60
2022-08-01T03:43:48.536Z,4.50
2022-08-01T03:46:24.919Z,5.10
2022-08-01T03:48:56.969Z,4.80
2022-08-01T03:51:31.637Z,4.70
2022-08-01T03:54:02.439Z,5.30
2022-08-01T03:56:33.355Z,4.70
2022-08-01T03:59:04.580Z,5.00
2022-08-01T04:01:33.729Z,5.20
2022-08-01T04:04:03.111Z,5.50
2022-08-01T04:06:31.350Z,5.70
2022-08-01T04:08:59.899Z,5.60
2022-08-01T04:11:29.957Z,6.00
2022-08-01T04:13:58.785Z,5.80
2022-08-01T04:16:27.106Z,5.70
2022-08-01T04:18:55.091Z,6.10
2022-08-01T04:21:28.821Z,5.60
2022-08-01T04:24:01.791Z,5.40
2022-08-01T04:26:32.931Z,5.90
2022-08-01T04:29:03.908Z,6.50
2022-08-01T04:31:35.502Z,5.90
2022-08-01T04:34:06.282Z,6.10
2022-08-01T04:36:38.300Z,6.10
2022-08-01T04:39:07.349Z,6.90
2022-08-01T04:41:37.745Z,6.80
2022-08-01T04:44:06.688Z,6.80
2022-08-01T04:46:36.068Z,7.30
2022-08-01T04:49:07.956Z,7.20
2022-08-01T04:51:36.595Z,6.90
2022-08-01T04:54:05.339Z,7.30
2022-08-01T04:56:35.885Z,7.50
2022-08-01T04:59:22.372Z,6.70
2022-08-01T05:01:51.741Z,6.80
2022-08-01T05:04:19.942Z,6.80
2022-08-01T05:06:47.920Z,7.20
2022-08-01T05:09:16.199Z,6.90
2022-08-01T05:11:44.357Z,6.90
2022-08-01T05:14:12.436Z,7.60
2022-08-01T05:16:40.527Z,6.60
2022-08-01T05:19:09.410Z,6.60
2022-08-01T05:21:37.536Z,6.50
2022-08-01T05:24:06.609Z,6.30
2022-08-01T05:26:34.736Z,6.40
2022-08-01T05:29:04.509Z,6.50
2022-08-01T05:31:35.410Z,6.80
2022-08-01T05:34:03.706Z,5.70
2022-08-01T05:36:31.772Z,6.20
2022-08-01T05:38:59.796Z,5.70
2022-08-01T05:41:27.836Z,5.70
2022-08-01T05:43:55.753Z,6.10
2022-08-01T05:46:23.819Z,6.20
2022-08-01T05:48:55.823Z,6.00
2022-08-01T05:51:23.850Z,6.70
2022-08-01T05:53:52.365Z,6.20
2022-08-01T05:56:21.946Z,6.80
2022-08-01T05:58:51.742Z,6.30
2022-08-01T06:01:20.141Z,7.20
2022-08-01T06:03:48.085Z,6.40
2022-08-01T06:06:16.285Z,6.40
2022-08-01T06:08:44.328Z,6.30
2022-08-01T06:11:13.379Z,5.90
2022-08-01T06:13:48.430Z,6.60
2022-08-01T06:16:17.684Z,5.40
2022-08-01T06:18:45.617Z,4.80
2022-08-01T06:21:13.730Z,4.80
2022-08-01T06:23:43.988Z,4.50
2022-08-01T06:26:12.622Z,4.50
2022-08-01T06:28:41.103Z,4.40
2022-08-01T06:31:11.071Z,4.50
2022-08-01T06:33:39.199Z,4.70
2022-08-01T06:36:07.291Z,3.50
2022-08-01T06:38:35.279Z,3.50
2022-08-01T06:41:03.585Z,3.30
2022-08-01T06:43:32.532Z,3.70
2022-08-01T06:46:00.523Z,3.30
2022-08-01T06:48:28.609Z,2.70
2022-08-01T06:51:09.245Z,2.00
2022-08-01T06:53:39.085Z,2.40
2022-08-01T06:56:10.057Z,2.40
2022-08-01T06:58:38.208Z,2.40
2022-08-01T07:01:09.505Z,2.80
2022-08-01T07:03:53.904Z,2.50
2022-08-01T07:06:24.970Z,2.30
2022-08-01T07:08:53.924Z,2.90
2022-08-01T07:11:23.444Z,2.10
2022-08-01T07:13:51.814Z,1.80
2022-08-01T07:16:20.207Z,1.80
2022-08-01T07:18:48.397Z,1.70
2022-08-01T07:21:40.019Z,2.30
2022-08-01T07:24:13.189Z,1.80
2022-08-01T07:26:52.474Z,1.70
2022-08-01T07:29:26.616Z,2.10
2022-08-01T07:31:57.267Z,2.60
2022-08-01T07:34:26.293Z,2.20
2022-08-01T07:36:55.160Z,2.20
2022-08-01T07:39:23.820Z,1.90
2022-08-01T07:42:06.364Z,1.80
2022-08-01T07:44:36.932Z,1.60
2022-08-01T07:47:06.917Z,1.60
2022-08-01T07:49:39.886Z,1.70
2022-08-01T07:52:09.508Z,1.70
2022-08-01T07:54:37.907Z,1.70
2022-08-01T07:57:05.966Z,1.70
2022-08-01T07:59:34.825Z,1.50
2022-08-01T08:02:02.990Z,1.50
2022-08-01T08:04:31.324Z,1.50
2022-08-01T08:06:59.359Z,1.70
2022-08-01T08:09:27.460Z,1.50
2022-08-01T08:11:55.309Z,5.20
2022-08-01T08:14:32.523Z,2.80
2022-08-01T08:17:02.018Z,2.40
2022-08-01T08:19:37.266Z,2.20
2022-08-01T08:22:09.122Z,2.00
2022-08-01T08:24:45.528Z,1.80
2022-08-01T08:27:16.124Z,1.70
2022-08-01T08:29:45.057Z,1.20
2022-08-01T08:32:13.749Z,1.80
2022-08-01T08:34:41.948Z,1.70
2022-08-01T08:37:10.140Z,1.50
2022-08-01T08:39:41.181Z,1.30
2022-08-01T08:42:11.973Z,2.10
2022-08-01T08:44:43.318Z,1.50
2022-08-01T08:47:19.300Z,1.50
2022-08-01T08:49:50.385Z,1.60
2022-08-01T08:52:20.931Z,1.50
2022-08-01T08:54:50.764Z,1.50
2022-08-01T08:57:22.070Z,1.70
2022-08-01T08:59:53.260Z,1.50
2022-08-01T09:02:21.943Z,1.20
2022-08-01T09:04:52.070Z,1.30
2022-08-01T09:07:20.145Z,1.30
2022-08-01T09:09:51.373Z,1.50
2022-08-01T09:12:21.587Z,1.70
2022-08-01T09:14:51.515Z,1.30
2022-08-01T09:17:19.744Z,1.40
2022-08-01T09:19:59.426Z,1.90
2022-08-01T09:22:34.850Z,1.60
2022-08-01T09:25:10.485Z,1.30
2022-08-01T09:27:44.116Z,1.40
2022-08-01T09:30:23.853Z,2.00
2022-08-01T09:32:56.202Z,1.60
2022-08-01T09:35:30.239Z,1.40
2022-08-01T09:38:23.607Z,1.40
2022-08-01T09:41:00.205Z,1.60
2022-08-01T09:43:32.796Z,1.80
2022-08-01T09:46:12.512Z,1.40
2022-08-01T09:49:07.570Z,1.40
2022-08-01T09:52:11.196Z,1.40
2022-08-01T09:54:47.421Z,1.60
2022-08-01T09:57:19.009Z,2.20
2022-08-01T10:00:00.623Z,1.70
2022-08-01T10:02:39.561Z,1.50
2022-08-01T10:05:10.641Z,1.40
2022-08-01T10:08:01.661Z,1.50
2022-08-01T10:10:37.532Z,1.40
2022-08-01T10:13:06.534Z,1.40
2022-08-01T10:15:39.098Z,1.80
2022-08-01T10:18:16.486Z,1.30
2022-08-01T10:20:56.574Z,1.30
2022-08-01T10:23:40.799Z,1.40
2022-08-01T10:26:13.293Z,1.30
2022-08-01T10:28:46.316Z,1.10
2022-08-01T10:31:14.986Z,1.00
2022-08-01T10:33:51.822Z,1.20
2022-08-01T10:36:25.495Z,1.40
2022-08-01T10:38:57.119Z,1.70
2022-08-01T10:41:27.608Z,1.50
2022-08-01T10:43:57.011Z,1.60
2022-08-01T10:46:26.151Z,1.40
2022-08-01T10:49:04.636Z,1.20
2022-08-01T10:51:52.357Z,1.40
2022-08-01T10:54:27.097Z,1.40
2022-08-01T10:57:07.003Z,1.60
2022-08-01T10:59:59.429Z,1.00
2022-08-01T11:02:35.702Z,1.20
2022-08-01T11:05:21.072Z,1.00
2022-08-01T11:08:07.403Z,0.90
2022-08-01T11:10:51.180Z,1.30
2022-08-01T11:13:59.337Z,1.20
2022-08-01T11:16:33.265Z,1.10
2022-08-01T11:19:07.371Z,1.20
2022-08-01T11:21:57.880Z,1.10
2022-08-01T11:24:50.683Z,1.70
2022-08-01T11:27:20.676Z,1.60
2022-08-01T11:30:13.162Z,1.80
2022-08-01T11:33:12.802Z,1.60
2022-08-01T11:36:48.732Z,1.60
2022-08-01T11:39:14.269Z,1.40
2022-08-01T11:41:45.106Z,1.40
2022-08-01T11:44:20.966Z,1.40
2022-08-01T11:47:08.919Z,1.60
2022-08-01T11:49:39.012Z,1.30
2022-08-01T11:52:10.845Z,1.00
2022-08-01T11:54:46.710Z,1.50
2022-08-01T11:57:23.291Z,1.80
2022-08-01T12:00:03.401Z,1.50
2022-08-01T12:02:37.694Z,1.80
2022-08-01T12:05:15.830Z,1.70
2022-08-01T12:07:46.666Z,2.10
2022-08-01T12:10:17.688Z,1.60
2022-08-01T12:12:50.295Z,1.60
2022-08-01T12:15:20.558Z,1.70
2022-08-01T12:18:16.630Z,1.50
2022-08-01T12:20:56.702Z,1.40
2022-08-01T12:23:25.381Z,1.80
2022-08-01T12:25:54.298Z,1.70
2022-08-01T12:28:23.991Z,1.80
2022-08-01T12:30:52.945Z,2.00
2022-08-01T12:33:22.293Z,1.90
2022-08-01T12:35:50.471Z,1.60
2022-08-01T12:38:23.518Z,1.60
2022-08-01T12:40:53.513Z,1.60
2022-08-01T12:43:29.205Z,1.40
2022-08-01T12:46:01.889Z,1.40
2022-08-01T12:48:33.091Z,1.80
2022-08-01T12:51:03.665Z,1.70
2022-08-01T12:53:39.836Z,1.80
2022-08-01T12:56:13.972Z,1.90
2022-08-01T12:58:41.974Z,2.10
2022-08-01T13:01:12.624Z,1.90
2022-08-01T13:03:41.255Z,1.70
2022-08-01T13:06:18.061Z,1.70
2022-08-01T13:08:47.242Z,1.40
2022-08-01T13:11:17.826Z,1.70
2022-08-01T13:13:50.538Z,1.60
2022-08-01T13:16:30.570Z,1.70
2022-08-01T13:19:07.396Z,1.70
2022-08-01T13:21:53.821Z,1.40
2022-08-01T13:24:30.577Z,1.70
2022-08-01T13:27:01.877Z,1.80
2022-08-01T13:29:30.610Z,1.70
2022-08-01T13:32:00.143Z,1.70
2022-08-01T13:34:36.539Z,1.90
2022-08-01T13:37:04.658Z,1.50
2022-08-01T13:39:41.816Z,2.30
2022-08-01T13:42:10.859Z,2.10
2022-08-01T13:44:46.743Z,2.80
2022-08-01T13:47:15.150Z,3.20
2022-08-01T13:49:43.713Z,1.50
2022-08-01T13:52:11.742Z,1.90
2022-08-01T13:54:39.739Z,2.30
2022-08-01T13:57:08.291Z,1.60
2022-08-01T13:59:36.541Z,1.70
2022-08-01T14:02:05.144Z,2.20
2022-08-01T14:04:33.706Z,1.70
2022-08-01T14:07:04.226Z,2.10
2022-08-01T14:09:35.658Z,2.10
2022-08-01T14:12:13.894Z,2.10
2022-08-01T14:14:42.069Z,1.90
2022-08-01T14:17:11.462Z,1.80
2022-08-01T14:19:43.385Z,2.30
2022-08-01T14:22:14.315Z,2.20
2022-08-01T14:24:42.850Z,2.10
2022-08-01T14:27:11.314Z,1.90
2022-08-01T14:30:02.819Z,2.30
2022-08-01T14:32:28.795Z,2.00
2022-08-01T14:34:58.042Z,1.90
2022-08-01T14:37:28.943Z,2.10
2022-08-01T14:40:00.225Z,1.90
2022-08-01T14:42:28.519Z,2.00
2022-08-01T14:44:56.745Z,2.50
2022-08-01T14:47:24.951Z,1.70
2022-08-01T14:49:53.446Z,2.10
2022-08-01T14:52:21.527Z,2.10
2022-08-01T14:54:49.520Z,2.10
2022-08-01T14:57:20.418Z,2.40
2022-08-01T14:59:48.615Z,2.40
2022-08-01T15:02:25.619Z,2.40
2022-08-01T15:04:55.309Z,2.50
2022-08-01T15:07:25.996Z,2.70
2022-08-01T15:09:54.335Z,2.80
2022-08-01T15:12:22.447Z,2.10
2022-08-01T15:14:51.609Z,2.30
2022-08-01T15:17:25.706Z,2.20
2022-08-01T15:19:56.198Z,2.40
2022-08-01T15:22:25.580Z,4.60
2022-08-01T15:24:57.499Z,5.90
2022-08-01T15:27:27.099Z,3.90
2022-08-01T15:29:57.464Z,2.70
2022-08-01T15:32:26.568Z,3.00
2022-08-01T15:38:36.550Z,2.70
2022-08-01T15:41:04.940Z,2.60
2022-08-01T15:43:44.174Z,2.50
2022-08-01T15:46:15.777Z,2.30
2022-08-01T15:48:44.416Z,2.30
2022-08-01T15:51:12.965Z,2.10
2022-08-01T15:53:42.422Z,2.20
2022-08-01T15:56:11.151Z,2.60
2022-08-01T15:58:40.102Z,2.70
2022-08-01T16:01:08.496Z,2.60
2022-08-01T16:03:37.226Z,2.30
2022-08-01T16:06:08.505Z,2.80
2022-08-01T16:08:40.035Z,2.90
2022-08-01T16:11:08.841Z,3.80
2022-08-01T16:13:37.255Z,4.40
2022-08-01T16:16:12.585Z,3.80
2022-08-01T16:18:41.030Z,3.20
2022-08-01T16:21:11.842Z,2.60
2022-08-01T16:23:42.033Z,2.30
2022-08-01T16:26:25.944Z,1.90
2022-08-01T16:28:58.234Z,2.40
2022-08-01T16:31:36.175Z,2.30
2022-08-01T16:34:15.430Z,2.60
2022-08-01T16:36:43.559Z,2.60
2022-08-01T16:39:11.579Z,2.80
2022-08-01T16:41:40.495Z,2.70
2022-08-01T16:44:08.817Z,2.80
2022-08-01T16:46:37.850Z,2.00
2022-08-01T16:49:07.121Z,2.40
2022-08-01T16:51:47.691Z,2.00
2022-08-01T16:54:25.512Z,2.40
2022-08-01T16:56:57.928Z,2.00
2022-08-01T16:59:45.331Z,2.80
2022-08-01T17:02:14.827Z,2.30
2022-08-01T17:04:42.937Z,2.00
2022-08-01T17:07:11.138Z,2.40
2022-08-01T17:09:43.312Z,2.50
2022-08-01T17:12:18.778Z,2.50
2022-08-01T17:14:51.431Z,2.90
2022-08-01T17:17:20.302Z,3.10
2022-08-01T17:19:49.564Z,3.40
2022-08-01T17:22:18.317Z,4.30
2022-08-01T17:24:46.470Z,3.70
2022-08-01T17:27:15.023Z,4.20
2022-08-01T17:29:44.617Z,4.00
2022-08-01T17:32:13.563Z,4.40
2022-08-01T17:34:43.006Z,4.40
2022-08-01T17:37:11.722Z,4.50
2022-08-01T17:39:40.265Z,4.30
2022-08-01T17:42:11.077Z,4.10
2022-08-01T17:44:39.569Z,3.80
2022-08-01T17:47:10.393Z,3.70
2022-08-01T17:49:55.818Z,3.50
2022-08-01T17:52:26.193Z,3.30
2022-08-01T17:54:59.401Z,3.10
2022-08-01T17:57:28.795Z,3.20
2022-08-01T17:59:58.115Z,3.70
2022-08-01T18:02:27.095Z,3.50
2022-08-01T18:04:55.435Z,3.30
2022-08-01T18:08:01.374Z,3.40
2022-08-01T18:10:12.065Z,4.00
2022-08-01T18:12:40.306Z,3.90
2022-08-01T18:15:09.016Z,3.20
2022-08-01T18:17:37.595Z,3.20
2022-08-01T18:20:06.510Z,3.40
2022-08-01T18:22:34.535Z,3.60
2022-08-01T18:25:08.480Z,3.90
2022-08-01T18:28:16.276Z,3.40
2022-08-01T18:30:25.555Z,3.70
2022-08-01T18:32:55.112Z,3.70
2022-08-01T18:35:26.739Z,3.40
2022-08-01T18:38:13.472Z,3.40
2022-08-01T18:40:41.832Z,3.20
2022-08-01T18:43:09.835Z,3.60
2022-08-01T18:45:42.541Z,3.60
2022-08-01T18:48:12.048Z,3.40
2022-08-01T18:50:40.176Z,3.40
2022-08-01T18:53:08.189Z,3.60
2022-08-01T18:55:36.155Z,4.00
2022-08-01T18:58:04.875Z,4.30
2022-08-01T19:00:32.863Z,3.80
2022-08-01T19:03:00.947Z,4.10
2022-08-01T19:05:29.010Z,4.60
2022-08-01T19:08:06.299Z,3.40
2022-08-01T19:10:42.976Z,3.60
2022-08-01T19:13:12.016Z,3.30
2022-08-01T19:15:40.216Z,3.50
2022-08-01T19:18:09.715Z,3.80
2022-08-01T19:20:39.064Z,4.00
2022-08-01T19:23:26.045Z,5.10
2022-08-01T19:25:57.257Z,5.30
2022-08-01T19:28:26.366Z,4.80
2022-08-01T19:30:56.005Z,3.60
2022-08-01T19:33:24.915Z,6.30
2022-08-01T19:35:53.862Z,4.30
2022-08-01T19:38:22.783Z,3.80
2022-08-01T19:40:51.580Z,3.90
2022-08-01T19:43:21.740Z,4.30
2022-08-01T19:45:51.491Z,4.60
2022-08-01T19:48:20.063Z,4.30
2022-08-01T19:50:50.486Z,4.10
2022-08-01T19:53:24.502Z,3.90
2022-08-01T19:55:53.732Z,3.50
2022-08-01T19:58:27.374Z,4.40
2022-08-01T20:00:56.322Z,4.10
2022-08-01T20:03:25.696Z,4.10
2022-08-01T20:05:54.720Z,4.00
2022-08-01T20:08:25.036Z,3.60
2022-08-01T20:10:53.258Z,3.70
2022-08-01T20:13:21.776Z,4.40
2022-08-01T20:15:51.815Z,4.40
2022-08-01T20:18:19.981Z,4.30
2022-08-01T20:20:49.826Z,4.30
2022-08-01T20:23:21.008Z,4.20
2022-08-01T20:25:51.492Z,4.20
2022-08-01T20:28:24.096Z,4.10
2022-08-01T20:30:55.878Z,3.80
2022-08-01T20:33:24.166Z,4.30
2022-08-01T20:35:55.305Z,4.10
2022-08-01T20:38:27.806Z,4.10
2022-08-01T20:41:02.539Z,4.00
2022-08-01T20:43:31.395Z,4.40
2022-08-01T20:46:00.301Z,3.70
2022-08-01T20:48:32.336Z,3.70
2022-08-01T20:51:17.585Z,3.90
2022-08-01T20:53:49.658Z,4.40
2022-08-01T20:56:51.395Z,4.50
2022-08-01T20:59:56.664Z,4.20
2022-08-01T21:02:52.381Z,4.10
2022-08-01T21:05:38.017Z,4.20
2022-08-01T21:08:22.977Z,4.20
2022-08-01T21:10:58.096Z,4.40
2022-08-01T21:13:41.975Z,4.10
2022-08-01T21:16:22.791Z,4.00
2022-08-01T21:19:20.842Z,3.70
2022-08-01T21:22:11.326Z,3.90
2022-08-01T21:24:58.083Z,3.90
2022-08-01T21:27:33.578Z,4.20
2022-08-01T21:30:06.196Z,4.40
2022-08-01T21:32:43.360Z,3.80
2022-08-01T21:35:16.493Z,4.00
2022-08-01T21:37:52.351Z,4.20
2022-08-01T21:40:23.545Z,4.10
2022-08-01T21:42:54.969Z,4.70
2022-08-01T21:45:26.110Z,4.80
2022-08-01T21:47:56.403Z,4.80
2022-08-01T21:50:25.518Z,4.90
2022-08-01T21:53:31.873Z,4.30
2022-08-01T21:56:28.857Z,4.70
2022-08-01T21:59:15.456Z,4.90
2022-08-01T22:01:55.283Z,5.10
2022-08-01T22:04:42.058Z,4.90
2022-08-01T22:07:15.077Z,5.80
2022-08-01T22:09:54.087Z,4.90
2022-08-01T22:12:22.293Z,5.60
2022-08-01T22:14:56.317Z,5.80
2022-08-01T22:17:25.126Z,5.30
2022-08-01T22:19:55.519Z,5.80
2022-08-01T22:22:51.473Z,6.00
2022-08-01T22:25:22.969Z,5.40
2022-08-01T22:28:07.912Z,6.00
2022-08-01T22:30:42.332Z,6.00
2022-08-01T22:33:16.335Z,5.40
2022-08-01T22:35:48.531Z,6.50
2022-08-01T22:38:21.241Z,6.00
2022-08-01T22:40:54.649Z,6.00
2022-08-01T22:43:31.222Z,6.70
2022-08-01T22:46:18.002Z,6.90
2022-08-01T22:49:11.938Z,6.30
2022-08-01T22:51:54.414Z,6.90
2022-08-01T22:54:41.366Z,7.50
2022-08-01T22:57:24.703Z,6.10
2022-08-01T23:00:01.405Z,7.10
2022-08-01T23:02:31.836Z,6.60
2022-08-01T23:05:06.627Z,7.00
2022-08-01T23:07:40.058Z,6.90
2022-08-01T23:10:08.920Z,7.50
2022-08-01T23:12:37.253Z,7.70
2022-08-01T23:15:05.965Z,7.00
2022-08-01T23:17:35.329Z,7.10
2022-08-01T23:20:07.013Z,7.20
2022-08-01T23:22:36.668Z,7.10
2022-08-01T23:25:12.120Z,6.50
2022-08-01T23:27:51.205Z,6.20
2022-08-01T23:30:33.339Z,5.90
2022-08-01T23:33:01.947Z,6.10
2022-08-01T23:35:30.758Z,6.80
2022-08-01T23:38:03.292Z,5.80
2022-08-01T23:40:33.494Z,5.70
2022-08-01T23:43:03.962Z,6.10
2022-08-01T23:46:02.739Z,6.00
2022-08-01T23:48:20.608Z,5.70
2022-08-01T23:50:48.689Z,6.30
2022-08-01T23:53:16.756Z,6.30
2022-08-01T23:55:44.766Z,5.40
2022-08-01T23:58:12.853Z,6.00
